sensor_id;sensor_type;location;lat;lon;timestamp;pressure;altitude;pressure_sealevel;temperature;humidity
13690;BME280;6917;52.194;9.894;2023-07-20T00:02:13;100266.00;;;15.95;100.00
13690;BME280;6917;52.194;9.894;2023-07-20T00:04:39;100267.59;;;15.96;100.00
13690;BME280;6917;52.194;9.894;2023-07-20T00:07:04;100264.84;;;15.96;100.00
13690;BME280;6917;52.194;9.894;2023-07-20T00:09:30;100268.84;;;15.99;100.00
13690;BME280;6917;52.194;9.894;2023-07-20T00:11:55;100259.00;;;15.98;100.00
13690;BME280;6917;52.194;9.894;2023-07-20T00:14:21;100259.25;;;15.93;100.00
13690;BME280;6917;52.194;9.894;2023-07-20T00:16:46;100266.38;;;15.94;100.00
13690;BME280;6917;52.194;9.894;2023-07-20T00:19:12;100261.22;;;15.92;100.00
13690;BME280;6917;52.194;9.894;2023-07-20T00:21:37;100264.84;;;15.96;100.00
13690;BME280;6917;52.194;9.894;2023-07-20T00:24:06;100262.09;;;15.96;100.00
13690;BME280;6917;52.194;9.894;2023-07-20T00:26:31;100251.16;;;16.00;100.00
13690;BME280;6917;52.194;9.894;2023-07-20T00:28:56;100253.13;;;15.99;100.00
13690;BME280;6917;52.194;9.894;2023-07-20T00:31:21;100248.31;;;15.96;100.00
13690;BME280;6917;52.194;9.894;2023-07-20T00:33:47;100258.28;;;16.01;100.00
13690;BME280;6917;52.194;9.894;2023-07-20T00:36:12;100250.56;;;16.06;100.00
13690;BME280;6917;52.194;9.894;2023-07-20T00:38:37;100242.53;;;16.01;100.00
13690;BME280;6917;52.194;9.894;2023-07-20T00:41:03;100241.13;;;15.92;100.00
13690;BME280;6917;52.194;9.894;2023-07-20T00:43:28;100249.97;;;15.85;100.00
13690;BME280;6917;52.194;9.894;2023-07-20T00:45:53;100241.06;;;15.76;100.00
13690;BME280;6917;52.194;9.894;2023-07-20T00:48:19;100244.50;;;15.73;100.00
13690;BME280;6917;52.194;9.894;2023-07-20T00:50:45;100250.03;;;15.73;100.00
13690;BME280;6917;52.194;9.894;2023-07-20T00:53:12;100249.47;;;15.67;100.00
13690;BME280;6917;52.194;9.894;2023-07-20T00:55:37;100246.72;;;15.67;100.00
13690;BME280;6917;52.194;9.894;2023-07-20T00:58:03;100247.88;;;15.66;100.00
13690;BME280;6917;52.194;9.894;2023-07-20T01:00:29;100255.34;;;15.66;100.00
13690;BME280;6917;52.194;9.894;2023-07-20T01:02:54;100259.44;;;15.72;100.00
13690;BME280;6917;52.194;9.894;2023-07-20T01:05:19;100251.09;;;15.68;100.00
13690;BME280;6917;52.194;9.894;2023-07-20T01:08:00;100262.81;;;15.65;100.00
13690;BME280;6917;52.194;9.894;2023-07-20T01:10:38;100263.84;;;15.61;100.00
13690;BME280;6917;52.194;9.894;2023-07-20T01:13:06;100261.75;;;15.58;100.00
13690;BME280;6917;52.194;9.894;2023-07-20T01:15:34;100263.16;;;15.52;100.00
13690;BME280;6917;52.194;9.894;2023-07-20T01:17:59;100266.47;;;15.57;100.00
13690;BME280;6917;52.194;9.894;2023-07-20T01:20:27;100273.38;;;15.51;100.00
13690;BME280;6917;52.194;9.894;2023-07-20T01:23:28;100267.97;;;15.55;100.00
13690;BME280;6917;52.194;9.894;2023-07-20T01:26:11;100264.41;;;15.66;100.00
13690;BME280;6917;52.194;9.894;2023-07-20T01:31:18;100272.97;;;15.37;100.00
13690;BME280;6917;52.194;9.894;2023-07-20T01:33:46;100262.03;;;15.40;100.00
13690;BME280;6917;52.194;9.894;2023-07-20T01:36:13;100271.19;;;15.44;100.00
13690;BME280;6917;52.194;9.894;2023-07-20T01:38:40;100272.44;;;15.47;100.00
13690;BME280;6917;52.194;9.894;2023-07-20T01:41:06;100264.00;;;15.40;100.00
13690;BME280;6917;52.194;9.894;2023-07-20T01:43:31;100264.13;;;15.31;100.00
13690;BME280;6917;52.194;9.894;2023-07-20T01:45:56;100273.41;;;15.39;100.00
13690;BME280;6917;52.194;9.894;2023-07-20T01:48:22;100277.38;;;15.54;100.00
13690;BME280;6917;52.194;9.894;2023-07-20T01:50:47;100266.59;;;15.61;100.00
13690;BME280;6917;52.194;9.894;2023-07-20T01:53:13;100270.00;;;15.70;100.00
13690;BME280;6917;52.194;9.894;2023-07-20T01:55:38;100263.78;;;15.73;100.00
13690;BME280;6917;52.194;9.894;2023-07-20T01:58:03;100254.03;;;15.75;100.00
13690;BME280;6917;52.194;9.894;2023-07-20T02:00:29;100255.09;;;15.71;100.00
13690;BME280;6917;52.194;9.894;2023-07-20T02:02:54;100256.38;;;15.61;100.00
13690;BME280;6917;52.194;9.894;2023-07-20T02:05:20;100255.34;;;15.54;100.00
13690;BME280;6917;52.194;9.894;2023-07-20T02:07:45;100255.47;;;15.45;100.00
13690;BME280;6917;52.194;9.894;2023-07-20T02:10:10;100257.25;;;15.25;100.00
13690;BME280;6917;52.194;9.894;2023-07-20T02:12:36;100259.78;;;15.18;100.00
13690;BME280;6917;52.194;9.894;2023-07-20T02:15:02;100260.72;;;15.10;100.00
13690;BME280;6917;52.194;9.894;2023-07-20T02:17:28;100264.19;;;15.07;100.00
13690;BME280;6917;52.194;9.894;2023-07-20T02:19:54;100275.19;;;15.07;100.00
13690;BME280;6917;52.194;9.894;2023-07-20T02:22:20;100270.59;;;15.11;100.00
13690;BME280;6917;52.194;9.894;2023-07-20T02:24:45;100272.28;;;15.15;100.00
13690;BME280;6917;52.194;9.894;2023-07-20T02:27:11;100270.34;;;15.16;100.00
13690;BME280;6917;52.194;9.894;2023-07-20T02:29:36;100280.19;;;15.17;100.00
13690;BME280;6917;52.194;9.894;2023-07-20T02:32:02;100269.78;;;15.23;100.00
13690;BME280;6917;52.194;9.894;2023-07-20T02:34:27;100279.03;;;15.18;100.00
13690;BME280;6917;52.194;9.894;2023-07-20T02:36:53;100270.69;;;15.14;100.00
13690;BME280;6917;52.194;9.894;2023-07-20T02:39:21;100282.03;;;15.13;100.00
13690;BME280;6917;52.194;9.894;2023-07-20T02:41:47;100283.53;;;15.23;100.00
13690;BME280;6917;52.194;9.894;2023-07-20T02:44:14;100277.69;;;15.24;100.00
13690;BME280;6917;52.194;9.894;2023-07-20T02:46:39;100284.09;;;15.28;100.00
13690;BME280;6917;52.194;9.894;2023-07-20T02:49:04;100285.69;;;15.29;100.00
13690;BME280;6917;52.194;9.894;2023-07-20T02:51:30;100283.88;;;15.21;100.00
13690;BME280;6917;52.194;9.894;2023-07-20T02:53:55;100289.59;;;15.28;100.00
13690;BME280;6917;52.194;9.894;2023-07-20T02:56:20;100285.25;;;15.27;100.00
13690;BME280;6917;52.194;9.894;2023-07-20T02:58:45;100284.19;;;15.32;100.00
13690;BME280;6917;52.194;9.894;2023-07-20T03:01:11;100285.78;;;15.33;100.00
13690;BME280;6917;52.194;9.894;2023-07-20T03:03:37;100284.09;;;15.28;100.00
13690;BME280;6917;52.194;9.894;2023-07-20T03:06:03;100284.22;;;15.20;100.00
13690;BME280;6917;52.194;9.894;2023-07-20T03:08:28;100285.69;;;15.17;100.00
13690;BME280;6917;52.194;9.894;2023-07-20T03:10:54;100281.13;;;15.21;100.00
13690;BME280;6917;52.194;9.894;2023-07-20T03:13:19;100292.50;;;15.20;100.00
13690;BME280;6917;52.194;9.894;2023-07-20T03:15:44;100287.56;;;15.13;100.00
13690;BME280;6917;52.194;9.894;2023-07-20T03:18:09;100299.81;;;15.15;100.00
13690;BME280;6917;52.194;9.894;2023-07-20T03:20:35;100298.31;;;15.18;100.00
13690;BME280;6917;52.194;9.894;2023-07-20T03:23:01;100300.84;;;15.23;100.00
13690;BME280;6917;52.194;9.894;2023-07-20T03:25:26;100289.84;;;15.23;100.00
13690;BME280;6917;52.194;9.894;2023-07-20T03:27:51;100289.13;;;15.26;100.00
13690;BME280;6917;52.194;9.894;2023-07-20T03:30:16;100284.53;;;15.30;100.00
13690;BME280;6917;52.194;9.894;2023-07-20T03:32:42;100272.03;;;15.33;100.00
13690;BME280;6917;52.194;9.894;2023-07-20T03:35:07;100280.50;;;15.40;100.00
13690;BME280;6917;52.194;9.894;2023-07-20T03:37:33;100277.22;;;15.34;100.00
13690;BME280;6917;52.194;9.894;2023-07-20T03:40:00;100280.75;;;15.35;100.00
13690;BME280;6917;52.194;9.894;2023-07-20T03:42:26;100286.84;;;15.28;100.00
13690;BME280;6917;52.194;9.894;2023-07-20T03:44:51;100278.47;;;15.25;100.00
13690;BME280;6917;52.194;9.894;2023-07-20T03:47:16;100284.88;;;15.41;100.00
13690;BME280;6917;52.194;9.894;2023-07-20T03:49:41;100282.53;;;15.55;100.00
13690;BME280;6917;52.194;9.894;2023-07-20T03:52:07;100270.28;;;15.53;100.00
13690;BME280;6917;52.194;9.894;2023-07-20T03:54:32;100273.50;;;15.42;100.00
13690;BME280;6917;52.194;9.894;2023-07-20T03:56:57;100261.13;;;15.48;100.00
13690;BME280;6917;52.194;9.894;2023-07-20T03:59:23;100272.00;;;15.45;100.00
13690;BME280;6917;52.194;9.894;2023-07-20T04:01:48;100270.19;;;15.49;100.00
13690;BME280;6917;52.194;9.894;2023-07-20T04:04:16;100271.66;;;15.46;100.00
13690;BME280;6917;52.194;9.894;2023-07-20T04:06:41;100274.38;;;15.59;100.00
13690;BME280;6917;52.194;9.894;2023-07-20T04:09:11;100276.78;;;15.72;100.00
13690;BME280;6917;52.194;9.894;2023-07-20T04:11:37;100277.47;;;15.69;100.00
13690;BME280;6917;52.194;9.894;2023-07-20T04:14:02;100286.59;;;15.86;100.00
13690;BME280;6917;52.194;9.894;2023-07-20T04:16:27;100283.44;;;15.99;100.00
13690;BME280;6917;52.194;9.894;2023-07-20T04:18:55;100286.50;;;16.10;100.00
13690;BME280;6917;52.194;9.894;2023-07-20T04:21:21;100281.16;;;16.17;100.00
13690;BME280;6917;52.194;9.894;2023-07-20T04:23:47;100283.72;;;16.10;100.00
13690;BME280;6917;52.194;9.894;2023-07-20T04:26:12;100284.78;;;16.05;100.00
13690;BME280;6917;52.194;9.894;2023-07-20T04:28:38;100287.44;;;16.02;100.00
13690;BME280;6917;52.194;9.894;2023-07-20T04:31:13;100288.56;;;15.85;100.00
13690;BME280;6917;52.194;9.894;2023-07-20T04:33:39;100289.16;;;15.79;100.00
13690;BME280;6917;52.194;9.894;2023-07-20T04:36:05;100292.06;;;15.70;100.00
13690;BME280;6917;52.194;9.894;2023-07-20T04:38:30;100299.16;;;15.71;100.00
13690;BME280;6917;52.194;9.894;2023-07-20T04:40:55;100297.81;;;15.65;100.00
13690;BME280;6917;52.194;9.894;2023-07-20T04:43:21;100307.78;;;15.57;100.00
13690;BME280;6917;52.194;9.894;2023-07-20T04:45:46;100308.81;;;15.53;100.00
13690;BME280;6917;52.194;9.894;2023-07-20T04:48:14;100320.28;;;15.55;100.00
13690;BME280;6917;52.194;9.894;2023-07-20T04:50:41;100332.34;;;15.50;100.00
13690;BME280;6917;52.194;9.894;2023-07-20T04:53:07;100327.75;;;15.54;100.00
13690;BME280;6917;52.194;9.894;2023-07-20T04:55:32;100330.72;;;15.61;100.00
13690;BME280;6917;52.194;9.894;2023-07-20T04:58:02;100337.16;;;15.53;100.00
13690;BME280;6917;52.194;9.894;2023-07-20T05:00:32;100340.63;;;15.50;100.00
13690;BME280;6917;52.194;9.894;2023-07-20T05:02:58;100345.88;;;15.55;100.00
13690;BME280;6917;52.194;9.894;2023-07-20T05:05:23;100333.28;;;15.30;100.00
13690;BME280;6917;52.194;9.894;2023-07-20T05:07:48;100345.78;;;15.27;100.00
13690;BME280;6917;52.194;9.894;2023-07-20T05:10:13;100338.00;;;15.17;100.00
13690;BME280;6917;52.194;9.894;2023-07-20T05:12:39;100343.38;;;15.26;100.00
13690;BME280;6917;52.194;9.894;2023-07-20T05:15:04;100343.84;;;15.28;100.00
13690;BME280;6917;52.194;9.894;2023-07-20T05:17:30;100342.13;;;15.35;100.00
13690;BME280;6917;52.194;9.894;2023-07-20T05:19:55;100350.16;;;15.40;100.00
13690;BME280;6917;52.194;9.894;2023-07-20T05:22:20;100338.44;;;15.31;100.00
13690;BME280;6917;52.194;9.894;2023-07-20T05:24:46;100346.03;;;15.34;100.00
13690;BME280;6917;52.194;9.894;2023-07-20T05:27:11;100350.84;;;15.25;100.00
13690;BME280;6917;52.194;9.894;2023-07-20T05:29:37;100343.16;;;15.18;100.00
13690;BME280;6917;52.194;9.894;2023-07-20T05:32:02;100343.38;;;15.13;100.00
13690;BME280;6917;52.194;9.894;2023-07-20T05:34:28;100347.63;;;15.11;100.00
13690;BME280;6917;52.194;9.894;2023-07-20T05:36:54;100346.94;;;14.89;100.00
13690;BME280;6917;52.194;9.894;2023-07-20T05:39:20;100341.09;;;14.91;100.00
13690;BME280;6917;52.194;9.894;2023-07-20T05:41:45;100344.66;;;14.92;100.00
13690;BME280;6917;52.194;9.894;2023-07-20T05:44:10;100345.00;;;14.90;100.00
13690;BME280;6917;52.194;9.894;2023-07-20T05:46:35;100350.03;;;14.88;100.00
13690;BME280;6917;52.194;9.894;2023-07-20T05:49:01;100345.56;;;14.83;100.00
13690;BME280;6917;52.194;9.894;2023-07-20T05:51:27;100352.22;;;14.82;100.00
13690;BME280;6917;52.194;9.894;2023-07-20T05:53:52;100352.56;;;14.81;100.00
13690;BME280;6917;52.194;9.894;2023-07-20T05:56:17;100359.31;;;14.83;100.00
13690;BME280;6917;52.194;9.894;2023-07-20T05:58:42;100362.06;;;14.83;100.00
13690;BME280;6917;52.194;9.894;2023-07-20T06:01:08;100368.03;;;14.85;100.00
13690;BME280;6917;52.194;9.894;2023-07-20T06:03:33;100365.72;;;14.87;100.00
13690;BME280;6917;52.194;9.894;2023-07-20T06:06:00;100372.25;;;14.83;100.00
13690;BME280;6917;52.194;9.894;2023-07-20T06:08:27;100375.94;;;14.87;100.00
13690;BME280;6917;52.194;9.894;2023-07-20T06:10:52;100376.16;;;14.82;100.00
13690;BME280;6917;52.194;9.894;2023-07-20T06:13:17;100378.34;;;14.88;100.00
13690;BME280;6917;52.194;9.894;2023-07-20T06:15:42;100385.91;;;15.04;100.00
13690;BME280;6917;52.194;9.894;2023-07-20T06:18:08;100376.19;;;15.06;100.00
13690;BME280;6917;52.194;9.894;2023-07-20T06:20:34;100382.25;;;15.12;100.00
13690;BME280;6917;52.194;9.894;2023-07-20T06:22:59;100389.38;;;15.25;100.00
13690;BME280;6917;52.194;9.894;2023-07-20T06:25:24;100382.63;;;15.35;100.00
13690;BME280;6917;52.194;9.894;2023-07-20T06:27:50;100388.47;;;15.21;100.00
13690;BME280;6917;52.194;9.894;2023-07-20T06:30:19;100388.91;;;15.11;100.00
13690;BME280;6917;52.194;9.894;2023-07-20T06:32:44;100380.41;;;15.04;100.00
13690;BME280;6917;52.194;9.894;2023-07-20T06:35:10;100385.47;;;15.02;100.00
13690;BME280;6917;52.194;9.894;2023-07-20T06:37:35;100390.19;;;15.13;100.00
13690;BME280;6917;52.194;9.894;2023-07-20T06:40:02;100393.03;;;15.17;100.00
13690;BME280;6917;52.194;9.894;2023-07-20T06:42:28;100400.38;;;15.25;100.00
13690;BME280;6917;52.194;9.894;2023-07-20T06:44:54;100395.78;;;15.29;100.00
13690;BME280;6917;52.194;9.894;2023-07-20T06:47:20;100383.88;;;15.25;100.00
13690;BME280;6917;52.194;9.894;2023-07-20T06:49:45;100393.16;;;15.33;100.00
13690;BME280;6917;52.194;9.894;2023-07-20T06:52:10;100394.31;;;15.44;100.00
13690;BME280;6917;52.194;9.894;2023-07-20T06:54:35;100390.28;;;15.54;100.00
13690;BME280;6917;52.194;9.894;2023-07-20T06:57:01;100388.69;;;15.53;100.00
13690;BME280;6917;52.194;9.894;2023-07-20T06:59:27;100397.66;;;15.50;100.00
13690;BME280;6917;52.194;9.894;2023-07-20T07:01:52;100393.84;;;15.54;100.00
13690;BME280;6917;52.194;9.894;2023-07-20T07:04:17;100390.75;;;15.56;100.00
13690;BME280;6917;52.194;9.894;2023-07-20T07:06:42;100396.16;;;15.52;100.00
13690;BME280;6917;52.194;9.894;2023-07-20T07:09:08;100402.69;;;15.60;100.00
13690;BME280;6917;52.194;9.894;2023-07-20T07:11:33;100397.63;;;15.74;100.00
13690;BME280;6917;52.194;9.894;2023-07-20T07:13:59;100402.09;;;15.79;100.00
13690;BME280;6917;52.194;9.894;2023-07-20T07:16:24;100396.81;;;15.86;100.00
13690;BME280;6917;52.194;9.894;2023-07-20T07:18:50;100404.63;;;15.84;100.00
13690;BME280;6917;52.194;9.894;2023-07-20T07:21:16;100406.66;;;15.87;100.00
13690;BME280;6917;52.194;9.894;2023-07-20T07:23:41;100401.84;;;15.84;100.00
13690;BME280;6917;52.194;9.894;2023-07-20T07:26:07;100401.25;;;15.90;100.00
13690;BME280;6917;52.194;9.894;2023-07-20T07:28:32;100393.22;;;15.97;100.00
13690;BME280;6917;52.194;9.894;2023-07-20T07:30:58;100408.78;;;16.05;100.00
13690;BME280;6917;52.194;9.894;2023-07-20T07:33:23;100402.78;;;16.16;100.00
13690;BME280;6917;52.194;9.894;2023-07-20T07:35:52;100407.13;;;16.29;100.00
13690;BME280;6917;52.194;9.894;2023-07-20T07:38:18;100407.97;;;16.45;100.00
13690;BME280;6917;52.194;9.894;2023-07-20T07:40:43;100396.56;;;16.47;100.00
13690;BME280;6917;52.194;9.894;2023-07-20T07:43:08;100404.72;;;16.55;100.00
13690;BME280;6917;52.194;9.894;2023-07-20T07:45:35;100407.81;;;16.82;100.00
13690;BME280;6917;52.194;9.894;2023-07-20T07:48:05;100399.34;;;16.75;100.00
13690;BME280;6917;52.194;9.894;2023-07-20T07:50:30;100397.66;;;16.86;99.91
13690;BME280;6917;52.194;9.894;2023-07-20T07:52:56;100389.75;;;17.00;99.16
13690;BME280;6917;52.194;9.894;2023-07-20T07:55:21;100391.88;;;17.07;97.62
13690;BME280;6917;52.194;9.894;2023-07-20T07:57:46;100383.25;;;17.08;95.01
13690;BME280;6917;52.194;9.894;2023-07-20T08:00:13;100392.59;;;17.19;95.25
13690;BME280;6917;52.194;9.894;2023-07-20T08:02:40;100393.06;;;17.21;94.23
13690;BME280;6917;52.194;9.894;2023-07-20T08:05:07;100387.19;;;17.07;93.90
13690;BME280;6917;52.194;9.894;2023-07-20T08:07:32;100392.06;;;17.30;95.59
13690;BME280;6917;52.194;9.894;2023-07-20T08:09:57;100386.53;;;17.30;93.86
13690;BME280;6917;52.194;9.894;2023-07-20T08:12:23;100375.03;;;17.28;92.39
13690;BME280;6917;52.194;9.894;2023-07-20T08:14:49;100362.22;;;17.04;89.85
13690;BME280;6917;52.194;9.894;2023-07-20T08:17:15;100373.16;;;17.32;90.89
13690;BME280;6917;52.194;9.894;2023-07-20T08:19:40;100378.22;;;17.45;90.06
13690;BME280;6917;52.194;9.894;2023-07-20T08:22:07;100378.66;;;17.47;89.74
13690;BME280;6917;52.194;9.894;2023-07-20T08:24:32;100377.03;;;17.62;88.86
13690;BME280;6917;52.194;9.894;2023-07-20T08:26:58;100389.63;;;17.95;90.05
13690;BME280;6917;52.194;9.894;2023-07-20T08:29:24;100379.44;;;17.79;89.86
13690;BME280;6917;52.194;9.894;2023-07-20T08:31:49;100379.28;;;17.92;88.48
13690;BME280;6917;52.194;9.894;2023-07-20T08:34:14;100376.81;;;17.87;84.00
13690;BME280;6917;52.194;9.894;2023-07-20T08:36:40;100374.59;;;17.76;83.87
13690;BME280;6917;52.194;9.894;2023-07-20T08:39:06;100371.22;;;17.67;84.59
13690;BME280;6917;52.194;9.894;2023-07-20T08:41:34;100382.97;;;17.64;85.64
13690;BME280;6917;52.194;9.894;2023-07-20T08:44:00;100388.41;;;17.76;86.21
13690;BME280;6917;52.194;9.894;2023-07-20T08:46:26;100372.28;;;17.78;83.06
13690;BME280;6917;52.194;9.894;2023-07-20T08:48:52;100369.81;;;17.73;81.70
13690;BME280;6917;52.194;9.894;2023-07-20T08:51:18;100367.34;;;17.88;81.56
13690;BME280;6917;52.194;9.894;2023-07-20T08:53:45;100353.22;;;17.73;80.51
13690;BME280;6917;52.194;9.894;2023-07-20T08:56:11;100367.28;;;18.03;79.96
13690;BME280;6917;52.194;9.894;2023-07-20T08:58:39;100368.59;;;18.29;78.75
13690;BME280;6917;52.194;9.894;2023-07-20T09:01:06;100372.75;;;18.38;78.03
13690;BME280;6917;52.194;9.894;2023-07-20T09:03:32;100374.53;;;18.50;76.24
13690;BME280;6917;52.194;9.894;2023-07-20T09:05:58;100355.78;;;18.40;73.13
13690;BME280;6917;52.194;9.894;2023-07-20T09:08:23;100357.06;;;18.46;73.98
13690;BME280;6917;52.194;9.894;2023-07-20T09:10:49;100361.25;;;18.59;73.55
13690;BME280;6917;52.194;9.894;2023-07-20T09:13:15;100362.66;;;18.69;70.84
13690;BME280;6917;52.194;9.894;2023-07-20T09:15:46;100365.75;;;18.87;70.30
13690;BME280;6917;52.194;9.894;2023-07-20T09:18:11;100337.59;;;18.62;68.30
13690;BME280;6917;52.194;9.894;2023-07-20T09:20:37;100347.34;;;18.75;68.25
13690;BME280;6917;52.194;9.894;2023-07-20T09:23:06;100349.31;;;18.97;70.50
13690;BME280;6917;52.194;9.894;2023-07-20T09:25:32;100336.03;;;18.84;69.54
13690;BME280;6917;52.194;9.894;2023-07-20T09:28:02;100341.41;;;18.54;69.86
13690;BME280;6917;52.194;9.894;2023-07-20T09:30:27;100345.03;;;18.58;69.40
13690;BME280;6917;52.194;9.894;2023-07-20T09:32:53;100342.78;;;18.86;68.42
13690;BME280;6917;52.194;9.894;2023-07-20T09:35:22;100350.22;;;19.05;67.53
13690;BME280;6917;52.194;9.894;2023-07-20T09:38:00;100354.19;;;19.30;66.50
13690;BME280;6917;52.194;9.894;2023-07-20T09:40:26;100339.22;;;19.35;64.82
13690;BME280;6917;52.194;9.894;2023-07-20T09:42:53;100328.34;;;18.96;63.48
13690;BME280;6917;52.194;9.894;2023-07-20T09:45:43;100334.81;;;19.08;64.51
13690;BME280;6917;52.194;9.894;2023-07-20T09:48:11;100333.06;;;19.22;63.28
13690;BME280;6917;52.194;9.894;2023-07-20T09:50:41;100319.13;;;19.15;60.85
13690;BME280;6917;52.194;9.894;2023-07-20T09:53:12;100324.44;;;19.01;61.63
13690;BME280;6917;52.194;9.894;2023-07-20T09:55:40;100337.72;;;19.41;62.38
13690;BME280;6917;52.194;9.894;2023-07-20T09:58:10;100330.25;;;19.72;61.41
13690;BME280;6917;52.194;9.894;2023-07-20T10:00:37;100322.75;;;19.72;60.02
13690;BME280;6917;52.194;9.894;2023-07-20T10:03:04;100309.06;;;19.56;58.63
13690;BME280;6917;52.194;9.894;2023-07-20T10:05:33;100326.34;;;19.50;60.32
13690;BME280;6917;52.194;9.894;2023-07-20T10:08:00;100332.47;;;19.59;61.34
13690;BME280;6917;52.194;9.894;2023-07-20T10:10:27;100319.69;;;19.24;60.66
13690;BME280;6917;52.194;9.894;2023-07-20T10:12:52;100319.38;;;19.07;61.16
13690;BME280;6917;52.194;9.894;2023-07-20T10:15:20;100318.84;;;19.24;59.76
13690;BME280;6917;52.194;9.894;2023-07-20T10:18:15;100316.75;;;19.40;59.07
13690;BME280;6917;52.194;9.894;2023-07-20T10:20:44;100325.03;;;19.67;58.96
13690;BME280;6917;52.194;9.894;2023-07-20T10:23:10;100317.41;;;19.90;58.91
13690;BME280;6917;52.194;9.894;2023-07-20T10:25:36;100322.19;;;19.93;58.54
13690;BME280;6917;52.194;9.894;2023-07-20T10:28:05;100311.78;;;20.16;55.39
13690;BME280;6917;52.194;9.894;2023-07-20T10:30:31;100311.13;;;20.27;56.45
13690;BME280;6917;52.194;9.894;2023-07-20T10:32:57;100300.69;;;20.16;57.42
13690;BME280;6917;52.194;9.894;2023-07-20T10:35:22;100300.13;;;20.00;56.22
13690;BME280;6917;52.194;9.894;2023-07-20T10:37:50;100296.13;;;19.98;54.41
13690;BME280;6917;52.194;9.894;2023-07-20T10:42:50;100279.88;;;19.66;54.27
13690;BME280;6917;52.194;9.894;2023-07-20T10:45:17;100293.44;;;20.05;54.08
13690;BME280;6917;52.194;9.894;2023-07-20T10:47:45;100294.88;;;20.29;54.02
13690;BME280;6917;52.194;9.894;2023-07-20T10:50:12;100293.47;;;20.42;54.33
13690;BME280;6917;52.194;9.894;2023-07-20T10:52:38;100275.69;;;20.54;52.54
13690;BME280;6917;52.194;9.894;2023-07-20T10:55:14;100278.31;;;20.39;54.22
13690;BME280;6917;52.194;9.894;2023-07-20T10:57:40;100261.75;;;20.09;52.15
13690;BME280;6917;52.194;9.894;2023-07-20T11:00:11;100280.59;;;20.27;52.36
13690;BME280;6917;52.194;9.894;2023-07-20T11:02:45;100294.84;;;20.62;54.19
13690;BME280;6917;52.194;9.894;2023-07-20T11:05:36;100271.16;;;20.35;53.19
13690;BME280;6917;52.194;9.894;2023-07-20T11:08:12;100275.91;;;20.34;53.10
13690;BME280;6917;52.194;9.894;2023-07-20T11:10:38;100282.22;;;20.31;54.01
13690;BME280;6917;52.194;9.894;2023-07-20T11:13:19;100278.31;;;20.39;54.39
13690;BME280;6917;52.194;9.894;2023-07-20T11:16:03;100266.28;;;20.25;54.44
13690;BME280;6917;52.194;9.894;2023-07-20T11:18:29;100271.09;;;20.28;53.99
13690;BME280;6917;52.194;9.894;2023-07-20T11:20:56;100260.59;;;20.47;53.62
13690;BME280;6917;52.194;9.894;2023-07-20T11:23:22;100268.22;;;20.58;52.67
13690;BME280;6917;52.194;9.894;2023-07-20T11:25:48;100270.34;;;20.71;53.47
13690;BME280;6917;52.194;9.894;2023-07-20T11:28:14;100269.94;;;20.73;52.57
13690;BME280;6917;52.194;9.894;2023-07-20T11:30:39;100277.50;;;20.76;52.28
13690;BME280;6917;52.194;9.894;2023-07-20T11:33:08;100263.91;;;20.64;52.50
13690;BME280;6917;52.194;9.894;2023-07-20T11:35:43;100281.69;;;20.56;53.05
13690;BME280;6917;52.194;9.894;2023-07-20T11:38:09;100261.53;;;20.25;53.76
13690;BME280;6917;52.194;9.894;2023-07-20T11:40:34;100266.03;;;20.00;53.84
13690;BME280;6917;52.194;9.894;2023-07-20T11:42:59;100273.97;;;20.01;55.43
13690;BME280;6917;52.194;9.894;2023-07-20T11:45:25;100266.72;;;19.89;54.82
13690;BME280;6917;52.194;9.894;2023-07-20T11:47:50;100262.00;;;19.94;54.95
13690;BME280;6917;52.194;9.894;2023-07-20T11:50:16;100268.25;;;20.24;55.39
13690;BME280;6917;52.194;9.894;2023-07-20T11:52:41;100264.00;;;20.34;55.80
13690;BME280;6917;52.194;9.894;2023-07-20T11:55:07;100278.88;;;20.52;55.68
13690;BME280;6917;52.194;9.894;2023-07-20T11:57:32;100269.25;;;20.83;55.20
13690;BME280;6917;52.194;9.894;2023-07-20T12:00:02;100278.19;;;21.17;55.39
13690;BME280;6917;52.194;9.894;2023-07-20T12:02:30;100270.66;;;21.18;54.11
13690;BME280;6917;52.194;9.894;2023-07-20T12:04:56;100262.06;;;20.82;52.58
13690;BME280;6917;52.194;9.894;2023-07-20T12:07:22;100260.44;;;20.74;54.62
13690;BME280;6917;52.194;9.894;2023-07-20T12:10:07;100257.16;;;20.61;53.71
13690;BME280;6917;52.194;9.894;2023-07-20T12:12:34;100254.84;;;20.30;53.80
13690;BME280;6917;52.194;9.894;2023-07-20T12:15:23;100262.78;;;20.31;54.43
13690;BME280;6917;52.194;9.894;2023-07-20T12:17:53;100259.50;;;20.18;54.88
13690;BME280;6917;52.194;9.894;2023-07-20T12:20:32;100264.13;;;20.07;55.95
13690;BME280;6917;52.194;9.894;2023-07-20T12:25:40;100265.19;;;19.96;56.49
13690;BME280;6917;52.194;9.894;2023-07-20T12:28:08;100268.25;;;20.24;56.24
13690;BME280;6917;52.194;9.894;2023-07-20T12:30:34;100261.41;;;20.48;56.28
13690;BME280;6917;52.194;9.894;2023-07-20T12:32:59;100258.94;;;20.84;55.87
13690;BME280;6917;52.194;9.894;2023-07-20T12:35:24;100269.88;;;21.17;56.13
13690;BME280;6917;52.194;9.894;2023-07-20T12:37:50;100235.06;;;20.75;53.04
13690;BME280;6917;52.194;9.894;2023-07-20T12:40:17;100236.53;;;21.17;53.51
13690;BME280;6917;52.194;9.894;2023-07-20T12:42:42;100259.06;;;21.78;53.15
13690;BME280;6917;52.194;9.894;2023-07-20T12:45:08;100245.59;;;21.97;51.58
13690;BME280;6917;52.194;9.894;2023-07-20T12:47:33;100253.66;;;22.20;51.71
13690;BME280;6917;52.194;9.894;2023-07-20T12:49:59;100251.69;;;22.39;50.89
13690;BME280;6917;52.194;9.894;2023-07-20T12:52:24;100234.56;;;22.26;50.29
13690;BME280;6917;52.194;9.894;2023-07-20T12:54:50;100226.47;;;21.71;48.94
13690;BME280;6917;52.194;9.894;2023-07-20T12:57:15;100223.66;;;21.57;48.76
13690;BME280;6917;52.194;9.894;2023-07-20T12:59:40;100217.53;;;21.26;50.39
13690;BME280;6917;52.194;9.894;2023-07-20T13:02:06;100217.81;;;21.10;51.32